Time;durP1;ratioP1;P1;durP2;ratioP2;P2;SDS_P1;SDS_P2;PMS_P1;PMS_P2;Temp;Humidity;BMP_temperature;BMP_pressure;BME280_temperature;BME280_humidity;BME280_pressure;Samples;Min_cycle;Max_cycle;Signal;HPM_P1;HPM_P2
2023/01/23 00:00:22;;;;;;;134.38;43.10;;;;;;;;;;4954762;29;20059;-81
2023/01/23 00:03:07;;;;;;;117.15;41.90;;;;;;;;;;4954865;29;20063;-81
2023/01/23 00:06:09;;;;;;;134.02;44.28;;;;;;;;;;4955222;29;20476;-81
2023/01/23 00:08:56;;;;;;;116.22;39.67;;;;;;;;;;4955679;28;20043;-81
2023/01/23 00:11:41;;;;;;;112.97;36.50;;;;;;;;;;4964096;28;20046;-81
2023/01/23 00:14:27;;;;;;;109.00;35.90;;;;;;;;;;4944278;29;20047;-81
2023/01/23 00:17:12;;;;;;;110.22;38.58;;;;;;;;;;4958253;29;20039;-81
2023/01/23 00:19:58;;;;;;;105.53;33.40;;;;;;;;;;4950511;28;20059;-81
2023/01/23 00:22:43;;;;;;;94.80;33.40;;;;;;;;;;4958434;29;20472;-81
2023/01/23 00:25:29;;;;;;;89.82;30.63;;;;;;;;;;4956696;29;20047;-82
2023/01/23 00:28:15;;;;;;;87.78;33.58;;;;;;;;;;4958351;29;20047;-81
2023/01/23 00:31:31;;;;;;;102.63;34.83;;;;;;;;;;4949652;28;20047;-80
2023/01/23 00:34:17;;;;;;;91.38;33.47;;;;;;;;;;4952801;29;20400;-81
2023/01/23 00:37:01;;;;;;;93.28;32.67;;;;;;;;;;4949891;28;20055;-82
2023/01/23 00:39:49;;;;;;;86.93;30.83;;;;;;;;;;4949897;28;20043;-81
2023/01/23 00:42:35;;;;;;;52.67;21.60;;;;;;;;;;4963432;28;20043;-80
2023/01/23 00:45:20;;;;;;;75.45;26.95;;;;;;;;;;4949356;28;20480;-80
2023/01/23 00:48:05;;;;;;;84.03;28.25;;;;;;;;;;4949886;28;20051;-81
2023/01/23 00:50:51;;;;;;;78.45;28.35;;;;;;;;;;4957789;29;20052;-80
2023/01/23 00:53:36;;;;;;;58.55;20.90;;;;;;;;;;4961296;28;20392;-81
2023/01/23 00:56:21;;;;;;;71.55;25.15;;;;;;;;;;4957349;29;20043;-80
2023/01/23 00:59:07;;;;;;;42.92;15.50;;;;;;;;;;4962672;28;20229;-80
2023/01/23 01:01:53;;;;;;;41.85;18.98;;;;;;;;;;4957762;29;20392;-81
2023/01/23 01:04:38;;;;;;;68.43;25.52;;;;;;;;;;4949087;28;20047;-81
2023/01/23 01:07:24;;;;;;;78.95;25.15;;;;;;;;;;4956299;29;20059;-80
2023/01/23 01:10:11;;;;;;;127.07;48.40;;;;;;;;;;4962920;28;20412;-81
2023/01/23 01:12:57;;;;;;;109.57;39.58;;;;;;;;;;4955974;29;20043;-80
2023/01/23 01:15:42;;;;;;;89.53;34.28;;;;;;;;;;4957362;29;20051;-82
2023/01/23 01:18:28;;;;;;;70.75;25.73;;;;;;;;;;4949083;28;20511;-80
2023/01/23 01:21:15;;;;;;;75.35;25.45;;;;;;;;;;4961554;28;20047;-80
2023/01/23 01:24:00;;;;;;;57.03;22.75;;;;;;;;;;4962787;28;20051;-81
2023/01/23 01:26:46;;;;;;;49.65;23.17;;;;;;;;;;4962072;28;20047;-81
2023/01/23 01:29:32;;;;;;;60.88;22.50;;;;;;;;;;4957321;29;20055;-80
2023/01/23 01:32:17;;;;;;;62.28;26.65;;;;;;;;;;4949404;28;20480;-81
2023/01/23 01:35:05;;;;;;;86.68;28.45;;;;;;;;;;4948597;28;20047;-82
2023/01/23 01:37:50;;;;;;;57.10;21.83;;;;;;;;;;4962757;28;20039;-81
2023/01/23 01:40:36;;;;;;;74.22;27.55;;;;;;;;;;4962098;28;20043;-82
2023/01/23 01:43:26;;;;;;;78.60;30.23;;;;;;;;;;4948706;28;20063;-81
2023/01/23 01:46:32;;;;;;;73.00;29.42;;;;;;;;;;4962633;28;20051;-80
2023/01/23 01:49:21;;;;;;;74.30;27.27;;;;;;;;;;4961640;28;20046;-81
2023/01/23 01:52:10;;;;;;;69.85;27.83;;;;;;;;;;4956756;29;20051;-82
2023/01/23 01:55:04;;;;;;;71.28;27.42;;;;;;;;;;4942822;29;20059;-80
2023/01/23 01:57:53;;;;;;;65.38;24.73;;;;;;;;;;4948824;28;20051;-80
2023/01/23 02:00:39;;;;;;;73.47;26.35;;;;;;;;;;4948773;28;20055;-80
2023/01/23 02:03:28;;;;;;;76.30;28.30;;;;;;;;;;4947996;28;20043;-81
2023/01/23 02:06:13;;;;;;;68.13;27.13;;;;;;;;;;4948480;28;20051;-80
2023/01/23 02:09:09;;;;;;;63.85;25.67;;;;;;;;;;4947738;28;20055;-80
2023/01/23 02:11:54;;;;;;;76.95;30.83;;;;;;;;;;4962141;28;20051;-80
2023/01/23 02:14:43;;;;;;;76.88;28.48;;;;;;;;;;4956664;29;20051;-81
2023/01/23 02:17:30;;;;;;;70.35;28.05;;;;;;;;;;4955837;29;20051;-80
2023/01/23 02:20:24;;;;;;;56.17;23.52;;;;;;;;;;4961706;28;20055;-80
2023/01/23 02:23:28;;;;;;;75.53;28.00;;;;;;;;;;4955657;29;20043;-81
2023/01/23 02:26:18;;;;;;;80.35;33.60;;;;;;;;;;4948416;28;20055;-79
2023/01/23 02:29:05;;;;;;;88.93;36.30;;;;;;;;;;4956243;29;20473;-79
2023/01/23 02:31:58;;;;;;;75.40;29.67;;;;;;;;;;4947793;28;20081;-80
2023/01/23 02:34:44;;;;;;;68.55;26.95;;;;;;;;;;4948568;28;20051;-80
2023/01/23 02:37:33;;;;;;;85.50;28.70;;;;;;;;;;4955581;29;20051;-80
2023/01/23 02:40:32;;;;;;;69.50;25.17;;;;;;;;;;4960898;28;20051;-80
2023/01/23 02:43:24;;;;;;;62.30;25.67;;;;;;;;;;4947681;28;20055;-80
2023/01/23 02:46:17;;;;;;;54.53;22.58;;;;;;;;;;4960336;28;20043;-80
2023/01/23 02:49:03;;;;;;;80.72;30.48;;;;;;;;;;4947806;28;20043;-80
2023/01/23 02:51:50;;;;;;;84.57;30.27;;;;;;;;;;4960664;28;20047;-79
2023/01/23 02:54:36;;;;;;;77.35;28.38;;;;;;;;;;4943014;29;20051;-81
2023/01/23 02:57:21;;;;;;;68.30;24.75;;;;;;;;;;4947532;28;20403;-80
2023/01/23 03:00:16;;;;;;;75.65;29.55;;;;;;;;;;4947436;28;20429;-80
2023/01/23 03:03:00;;;;;;;47.38;17.98;;;;;;;;;;4947605;28;20404;-79
2023/01/23 03:05:45;;;;;;;59.67;24.13;;;;;;;;;;4946903;28;20051;-80
2023/01/23 03:08:35;;;;;;;60.45;22.27;;;;;;;;;;4947872;28;20047;-80
2023/01/23 03:11:20;;;;;;;70.90;25.50;;;;;;;;;;4947528;28;20047;-80
2023/01/23 03:14:08;;;;;;;59.40;23.75;;;;;;;;;;4947320;29;20051;-80
2023/01/23 03:16:54;;;;;;;80.32;29.80;;;;;;;;;;4947459;29;20055;-81
2023/01/23 03:19:41;;;;;;;92.05;32.45;;;;;;;;;;4960649;28;20052;-81
2023/01/23 03:22:27;;;;;;;69.50;27.75;;;;;;;;;;4947494;29;20047;-81
2023/01/23 03:25:12;;;;;;;75.28;27.80;;;;;;;;;;4947588;29;20051;-81
2023/01/23 03:27:58;;;;;;;70.78;25.42;;;;;;;;;;4955320;29;20055;-81
2023/01/23 03:30:44;;;;;;;60.42;24.95;;;;;;;;;;4947282;29;20051;-79
2023/01/23 03:33:29;;;;;;;67.15;26.67;;;;;;;;;;4947066;29;20047;-80
2023/01/23 03:36:14;;;;;;;75.32;28.63;;;;;;;;;;4960700;29;20051;-78
2023/01/23 03:42:04;;;;;;;66.97;25.13;;;;;;;;;;4960551;29;20051;-79
2023/01/23 03:44:51;;;;;;;59.05;24.17;;;;;;;;;;4963209;28;20058;-80
2023/01/23 03:47:39;;;;;;;63.95;24.83;;;;;;;;;;4964328;28;20047;-79
2023/01/23 03:50:25;;;;;;;56.58;24.13;;;;;;;;;;4981735;28;20046;-79
2023/01/23 03:53:10;;;;;;;56.42;23.58;;;;;;;;;;4988962;28;20046;-79
2023/01/23 03:55:55;;;;;;;49.70;19.95;;;;;;;;;;4989094;28;20054;-78
2023/01/23 03:58:42;;;;;;;48.85;22.27;;;;;;;;;;4989436;28;20054;-78
2023/01/23 04:01:29;;;;;;;44.20;21.88;;;;;;;;;;4988896;28;20046;-79
2023/01/23 04:04:14;;;;;;;35.65;16.75;;;;;;;;;;4989064;28;20410;-79
2023/01/23 04:07:02;;;;;;;32.08;15.52;;;;;;;;;;4997840;28;20058;-79
2023/01/23 04:09:48;;;;;;;33.90;15.77;;;;;;;;;;4989047;28;20503;-79
2023/01/23 04:12:34;;;;;;;20.25;10.25;;;;;;;;;;4986676;28;20479;-79
2023/01/23 04:15:20;;;;;;;24.48;12.13;;;;;;;;;;4989021;28;20046;-79
2023/01/23 04:18:05;;;;;;;10.52;6.35;;;;;;;;;;4988887;28;20046;-78
2023/01/23 04:20:51;;;;;;;16.70;7.93;;;;;;;;;;4989076;28;20051;-79
2023/01/23 04:23:36;;;;;;;11.90;5.82;;;;;;;;;;4988655;28;20046;-79
2023/01/23 04:26:22;;;;;;;18.65;9.10;;;;;;;;;;4975619;28;20042;-79
2023/01/23 04:29:09;;;;;;;22.83;11.68;;;;;;;;;;4988540;28;20050;-80
2023/01/23 04:31:54;;;;;;;16.55;9.10;;;;;;;;;;4980334;28;20042;-79
2023/01/23 04:34:39;;;;;;;14.95;7.85;;;;;;;;;;4969367;28;20487;-80
2023/01/23 04:37:26;;;;;;;13.18;8.23;;;;;;;;;;4969138;28;20050;-79
2023/01/23 04:40:11;;;;;;;10.80;5.40;;;;;;;;;;4969126;28;20407;-79
2023/01/23 04:43:08;;;;;;;11.25;7.00;;;;;;;;;;4969221;28;20054;-80
2023/01/23 04:46:00;;;;;;;12.82;6.63;;;;;;;;;;4968260;28;20050;-80
2023/01/23 04:48:45;;;;;;;11.80;6.45;;;;;;;;;;4975138;28;20042;-80
2023/01/23 04:51:30;;;;;;;13.57;6.95;;;;;;;;;;4964890;28;20046;-82
2023/01/23 04:54:17;;;;;;;11.10;6.75;;;;;;;;;;4963845;28;20435;-80
2023/01/23 04:57:02;;;;;;;11.23;6.95;;;;;;;;;;4968480;28;20476;-81
2023/01/23 04:59:48;;;;;;;26.25;10.57;;;;;;;;;;4966855;28;20050;-80
2023/01/23 05:02:33;;;;;;;11.80;6.63;;;;;;;;;;4949446;28;20051;-80
2023/01/23 05:05:20;;;;;;;15.43;7.55;;;;;;;;;;4969817;28;20047;-81
2023/01/23 05:08:08;;;;;;;18.15;7.43;;;;;;;;;;4955388;28;20050;-81
2023/01/23 05:10:53;;;;;;;17.50;8.05;;;;;;;;;;4968387;28;20047;-81
2023/01/23 05:13:39;;;;;;;13.98;7.47;;;;;;;;;;4968450;28;20046;-80
2023/01/23 05:16:25;;;;;;;21.60;9.45;;;;;;;;;;4968363;28;20051;-80
2023/01/23 05:19:36;;;;;;;16.35;7.63;;;;;;;;;;4982653;28;20039;-81
2023/01/23 05:22:23;;;;;;;20.52;10.98;;;;;;;;;;4968036;28;20395;-80
2023/01/23 05:25:09;;;;;;;14.00;7.97;;;;;;;;;;4951047;28;20038;-80
2023/01/23 05:27:55;;;;;;;19.40;8.40;;;;;;;;;;4981637;28;20047;-81
2023/01/23 05:30:42;;;;;;;14.05;7.72;;;;;;;;;;4982008;28;20054;-81
2023/01/23 05:33:40;;;;;;;23.65;10.55;;;;;;;;;;4974541;28;20399;-80
2023/01/23 05:36:25;;;;;;;22.63;10.20;;;;;;;;;;4980337;28;20050;-80
2023/01/23 05:39:10;;;;;;;21.95;11.32;;;;;;;;;;4973746;28;20484;-81
2023/01/23 05:41:56;;;;;;;13.18;7.43;;;;;;;;;;4954773;28;20051;-81
2023/01/23 05:44:42;;;;;;;20.88;10.50;;;;;;;;;;4975959;28;20046;-80
2023/01/23 05:47:33;;;;;;;23.02;10.73;;;;;;;;;;4967725;28;20055;-81
2023/01/23 05:50:21;;;;;;;19.52;10.02;;;;;;;;;;4948687;28;20055;-80
2023/01/23 05:53:06;;;;;;;23.48;11.55;;;;;;;;;;4947862;28;20043;-81
2023/01/23 05:55:54;;;;;;;25.02;11.32;;;;;;;;;;4959470;28;20050;-80
2023/01/23 05:58:40;;;;;;;16.10;8.65;;;;;;;;;;4953152;28;20047;-78
2023/01/23 06:01:35;;;;;;;19.90;9.73;;;;;;;;;;4975448;28;20058;-81
2023/01/23 06:04:55;;;;;;;18.42;7.72;;;;;;;;;;4915851;29;20088;-81
2023/01/23 06:07:48;;;;;;;19.98;8.45;;;;;;;;;;4954666;28;20479;-81
2023/01/23 06:10:37;;;;;;;23.45;10.55;;;;;;;;;;4967402;28;20054;-81
2023/01/23 06:13:22;;;;;;;17.48;9.32;;;;;;;;;;4953469;28;20467;-82
2023/01/23 06:16:08;;;;;;;12.20;6.53;;;;;;;;;;4966855;28;20054;-82
2023/01/23 06:18:54;;;;;;;15.05;7.78;;;;;;;;;;4949465;28;20051;-81
2023/01/23 06:21:40;;;;;;;14.93;7.90;;;;;;;;;;4985012;28;20046;-81
2023/01/23 06:24:26;;;;;;;12.20;6.80;;;;;;;;;;4986337;28;20068;-81
2023/01/23 06:27:12;;;;;;;13.13;7.18;;;;;;;;;;4986402;28;20038;-81
2023/01/23 06:29:57;;;;;;;9.73;6.57;;;;;;;;;;4993283;28;20047;-81
2023/01/23 06:32:43;;;;;;;11.90;6.22;;;;;;;;;;4984871;28;20047;-81
2023/01/23 06:35:30;;;;;;;15.27;8.40;;;;;;;;;;4986030;28;20398;-79
2023/01/23 06:38:15;;;;;;;12.85;6.45;;;;;;;;;;4993959;28;20038;-81
2023/01/23 06:41:00;;;;;;;11.52;6.78;;;;;;;;;;4985140;28;20054;-81
2023/01/23 06:43:52;;;;;;;11.27;6.68;;;;;;;;;;4985974;28;20077;-79
2023/01/23 06:46:41;;;;;;;16.27;8.48;;;;;;;;;;4986141;28;20046;-80
2023/01/23 06:49:26;;;;;;;18.58;7.65;;;;;;;;;;4994382;28;20046;-80
2023/01/23 06:52:11;;;;;;;16.05;7.22;;;;;;;;;;4986437;28;20054;-80
2023/01/23 06:54:57;;;;;;;13.52;6.70;;;;;;;;;;4980557;28;20046;-80
2023/01/23 06:57:42;;;;;;;9.88;6.00;;;;;;;;;;4994341;28;20042;-80
2023/01/23 07:00:28;;;;;;;11.55;6.45;;;;;;;;;;4985863;28;20054;-79
2023/01/23 07:03:15;;;;;;;15.88;9.20;;;;;;;;;;4985613;28;20479;-82
2023/01/23 07:06:05;;;;;;;14.43;8.20;;;;;;;;;;4979506;28;20402;-80
2023/01/23 07:08:51;;;;;;;14.02;8.88;;;;;;;;;;4985707;28;20055;-80
2023/01/23 07:11:36;;;;;;;14.65;8.18;;;;;;;;;;4972409;28;20058;-81
2023/01/23 07:14:25;;;;;;;11.23;7.07;;;;;;;;;;4972694;28;20492;-80
2023/01/23 07:17:11;;;;;;;11.85;6.95;;;;;;;;;;4985461;28;20050;-79
2023/01/23 07:19:56;;;;;;;16.90;9.35;;;;;;;;;;4975602;28;20047;-80
2023/01/23 07:22:41;;;;;;;11.30;5.93;;;;;;;;;;4989770;28;20487;-80
2023/01/23 07:25:27;;;;;;;8.02;5.00;;;;;;;;;;4997705;28;20395;-80
2023/01/23 07:28:13;;;;;;;11.50;6.28;;;;;;;;;;4998141;28;20042;-80
2023/01/23 07:30:58;;;;;;;16.77;8.07;;;;;;;;;;4983165;28;20139;-80
2023/01/23 07:33:43;;;;;;;10.88;6.47;;;;;;;;;;4998144;28;20038;-80
2023/01/23 07:36:29;;;;;;;18.83;9.68;;;;;;;;;;4997860;28;20054;-80
2023/01/23 07:39:15;;;;;;;10.45;5.75;;;;;;;;;;5003288;28;20043;-79
2023/01/23 07:41:59;;;;;;;16.33;9.23;;;;;;;;;;4998258;28;20055;-80
2023/01/23 07:44:46;;;;;;;37.17;17.33;;;;;;;;;;4989082;28;20051;-79
2023/01/23 07:47:32;;;;;;;33.70;13.63;;;;;;;;;;4998012;28;20038;-80
2023/01/23 07:50:16;;;;;;;22.85;10.75;;;;;;;;;;4997069;28;20050;-79
2023/01/23 07:53:03;;;;;;;9.30;5.43;;;;;;;;;;4982670;28;20415;-79
2023/01/23 07:55:48;;;;;;;9.48;5.20;;;;;;;;;;4982970;28;20050;-79
2023/01/23 07:58:33;;;;;;;9.95;5.38;;;;;;;;;;4996984;28;20042;-80
2023/01/23 08:01:19;;;;;;;11.77;6.20;;;;;;;;;;4998151;28;20046;-79
2023/01/23 08:22:04;;;;;;;12.95;7.90;;;;;;;;;;6299500;22;1338403;-80
2023/01/23 08:24:49;;;;;;;6.47;3.83;;;;;;;;;;6365527;22;20443;-79
2023/01/23 08:27:35;;;;;;;8.18;5.40;;;;;;;;;;6336871;22;20026;-80
2023/01/23 08:30:20;;;;;;;8.68;4.10;;;;;;;;;;6335299;22;20045;-80
2023/01/23 08:33:06;;;;;;;5.13;3.40;;;;;;;;;;6357679;22;20025;-80
2023/01/23 08:35:56;;;;;;;5.88;3.72;;;;;;;;;;6358803;22;20019;-80
2023/01/23 08:38:41;;;;;;;6.07;4.18;;;;;;;;;;6358740;22;20018;-80
2023/01/23 08:41:26;;;;;;;8.75;5.00;;;;;;;;;;6358024;22;20026;-78
2023/01/23 08:44:12;;;;;;;6.53;4.60;;;;;;;;;;6358761;22;20021;-78
2023/01/23 08:46:59;;;;;;;8.75;4.38;;;;;;;;;;6357682;22;20018;-79
2023/01/23 08:49:44;;;;;;;9.05;5.18;;;;;;;;;;6358421;22;20030;-78
2023/01/23 08:52:30;;;;;;;7.45;3.83;;;;;;;;;;6359101;22;20336;-79
2023/01/23 08:55:15;;;;;;;7.45;4.57;;;;;;;;;;6312381;22;20352;-79
2023/01/23 08:58:01;;;;;;;7.28;5.10;;;;;;;;;;6358255;22;20021;-79
2023/01/23 09:00:46;;;;;;;10.40;5.82;;;;;;;;;;6334320;22;20026;-79
2023/01/23 09:03:32;;;;;;;7.25;4.32;;;;;;;;;;6358134;22;20336;-80
2023/01/23 09:06:20;;;;;;;6.78;4.07;;;;;;;;;;6358460;22;20029;-79
2023/01/23 09:09:05;;;;;;;6.22;3.97;;;;;;;;;;6357167;22;20026;-79
2023/01/23 09:11:51;;;;;;;7.50;4.18;;;;;;;;;;6357930;22;20030;-79
2023/01/23 09:14:37;;;;;;;5.15;3.78;;;;;;;;;;6357541;22;20015;-80
2023/01/23 09:17:22;;;;;;;4.65;3.00;;;;;;;;;;6358325;22;20026;-80
2023/01/23 09:20:07;;;;;;;6.50;4.20;;;;;;;;;;6355987;22;20022;-79
2023/01/23 09:22:52;;;;;;;7.47;2.95;;;;;;;;;;6350447;22;20041;-80
2023/01/23 09:25:38;;;;;;;3.83;3.00;;;;;;;;;;6351059;22;20017;-79
2023/01/23 09:28:23;;;;;;;4.05;2.97;;;;;;;;;;6351021;22;20034;-78
2023/01/23 09:31:11;;;;;;;7.20;4.10;;;;;;;;;;6350539;22;20046;-79
2023/01/23 09:33:57;;;;;;;6.18;3.90;;;;;;;;;;6351483;22;20031;-78
2023/01/23 09:36:42;;;;;;;4.85;3.10;;;;;;;;;;6354528;22;20019;-79
2023/01/23 09:39:28;;;;;;;5.22;3.58;;;;;;;;;;6350883;22;20113;-79
2023/01/23 09:42:19;;;;;;;7.05;4.13;;;;;;;;;;6351840;22;20026;-77
2023/01/23 09:45:07;;;;;;;5.85;2.88;;;;;;;;;;6350116;22;20018;-77
2023/01/23 09:48:11;;;;;;;10.52;4.95;;;;;;;;;;6351548;22;20022;-78
2023/01/23 09:51:14;;;;;;;7.13;3.88;;;;;;;;;;6350294;22;20447;-78
2023/01/23 09:54:09;;;;;;;6.53;3.72;;;;;;;;;;6350739;22;20348;-80
2023/01/23 09:56:57;;;;;;;7.60;3.80;;;;;;;;;;6327416;22;20022;-79
2023/01/23 09:59:49;;;;;;;7.07;5.00;;;;;;;;;;6350518;22;20023;-79
2023/01/23 10:02:34;;;;;;;8.52;5.30;;;;;;;;;;6351269;22;20030;-80
2023/01/23 10:05:29;;;;;;;7.63;4.55;;;;;;;;;;6349825;22;20026;-80
2023/01/23 10:08:47;;;;;;;11.73;5.43;;;;;;;;;;6351049;22;20029;-80
2023/01/23 10:11:58;;;;;;;15.00;7.80;;;;;;;;;;6326737;22;20336;-80
2023/01/23 10:14:53;;;;;;;12.13;7.88;;;;;;;;;;6351236;22;20019;-79
2023/01/23 10:17:40;;;;;;;11.02;4.07;;;;;;;;;;6327150;22;20354;-79
2023/01/23 10:20:32;;;;;;;7.00;4.13;;;;;;;;;;6346118;22;20022;-79
2023/01/23 10:23:29;;;;;;;9.23;5.13;;;;;;;;;;6350394;22;20021;-79
2023/01/23 10:26:23;;;;;;;16.95;9.38;;;;;;;;;;6326358;22;20023;-80
2023/01/23 10:29:26;;;;;;;8.63;5.57;;;;;;;;;;6350449;22;20014;-80
2023/01/23 10:32:38;;;;;;;8.35;5.28;;;;;;;;;;6350194;22;20336;-80
2023/01/23 10:35:54;;;;;;;9.43;5.22;;;;;;;;;;6349996;22;20025;-81
2023/01/23 10:38:58;;;;;;;8.65;4.80;;;;;;;;;;6327157;22;20450;-82
2023/01/23 10:41:45;;;;;;;8.95;5.63;;;;;;;;;;6349459;22;20026;-78
2023/01/23 10:44:30;;;;;;;9.80;6.13;;;;;;;;;;6350511;22;20018;-78
2023/01/23 10:47:51;;;;;;;10.65;6.13;;;;;;;;;;6349509;22;20022;-78
2023/01/23 10:50:39;;;;;;;13.57;8.25;;;;;;;;;;6350630;22;20019;-80
